sensor_id;sensor_type;location;lat;lon;timestamp;pressure;altitude;pressure_sealevel;temperature;humidity
43621;BME280;29213;50.770;7.298;2023-07-29T00:00:19;100112.44;;;17.39;74.35
43621;BME280;29213;50.770;7.298;2023-07-29T00:02:45;100109.97;;;17.37;74.42
43621;BME280;29213;50.770;7.298;2023-07-29T00:05:11;100105.63;;;17.36;74.54
43621;BME280;29213;50.770;7.298;2023-07-29T00:07:36;99979.91;;;16.48;74.35
43621;BME280;29213;50.770;7.298;2023-07-29T00:10:02;100018.31;;;16.88;74.68
43621;BME280;29213;50.770;7.298;2023-07-29T00:12:28;100093.22;;;17.35;74.58
43621;BME280;29213;50.770;7.298;2023-07-29T00:14:54;100051.00;;;17.10;74.70
43621;BME280;29213;50.770;7.298;2023-07-29T00:17:20;100052.03;;;17.09;74.55
43621;BME280;29213;50.770;7.298;2023-07-29T00:19:46;100089.69;;;17.34;74.73
43621;BME280;29213;50.770;7.298;2023-07-29T00:22:12;99967.03;;;16.57;74.66
43621;BME280;29213;50.770;7.298;2023-07-29T00:24:37;100026.09;;;16.96;74.79
43621;BME280;29213;50.770;7.298;2023-07-29T00:27:02;100087.00;;;17.34;74.74
43621;BME280;29213;50.770;7.298;2023-07-29T00:29:28;100081.84;;;17.33;74.82
43621;BME280;29213;50.770;7.298;2023-07-29T00:31:53;100004.44;;;16.84;75.03
43621;BME280;29213;50.770;7.298;2023-07-29T00:34:19;100078.56;;;17.31;74.89
43621;BME280;29213;50.770;7.298;2023-07-29T00:36:45;100086.41;;;17.32;74.82
43621;BME280;29213;50.770;7.298;2023-07-29T00:39:11;100017.84;;;16.91;75.08
43621;BME280;29213;50.770;7.298;2023-07-29T00:41:36;100057.16;;;17.17;74.77
43621;BME280;29213;50.770;7.298;2023-07-29T00:44:02;99988.97;;;16.79;74.81
43621;BME280;29213;50.770;7.298;2023-07-29T00:46:28;100070.47;;;17.31;74.84
43621;BME280;29213;50.770;7.298;2023-07-29T00:48:55;99990.69;;;16.74;74.96
43621;BME280;29213;50.770;7.298;2023-07-29T00:51:20;100072.56;;;17.29;74.80
43621;BME280;29213;50.770;7.298;2023-07-29T00:53:46;99935.50;;;16.46;74.91
43621;BME280;29213;50.770;7.298;2023-07-29T00:56:12;100070.09;;;17.27;75.01
43621;BME280;29213;50.770;7.298;2023-07-29T00:58:38;100018.84;;;16.96;74.74
43621;BME280;29213;50.770;7.298;2023-07-29T01:01:03;100057.31;;;17.22;74.73
43621;BME280;29213;50.770;7.298;2023-07-29T01:03:29;100046.25;;;17.12;74.86
43621;BME280;29213;50.770;7.298;2023-07-29T01:06:07;99979.09;;;16.73;75.07
43621;BME280;29213;50.770;7.298;2023-07-29T01:08:55;100060.38;;;17.26;75.14
43621;BME280;29213;50.770;7.298;2023-07-29T01:11:48;100064.13;;;17.25;74.89
43621;BME280;29213;50.770;7.298;2023-07-29T01:14:33;100007.09;;;16.91;75.17
43621;BME280;29213;50.770;7.298;2023-07-29T01:17:04;100054.84;;;17.21;75.15
43621;BME280;29213;50.770;7.298;2023-07-29T01:20:01;100049.69;;;17.19;75.14
43621;BME280;29213;50.770;7.298;2023-07-29T01:22:32;100028.47;;;17.11;75.02
43621;BME280;29213;50.770;7.298;2023-07-29T01:24:58;99985.47;;;16.79;75.04
43621;BME280;29213;50.770;7.298;2023-07-29T01:27:24;99999.66;;;16.93;75.17
43621;BME280;29213;50.770;7.298;2023-07-29T01:29:49;100013.19;;;17.05;75.01
43621;BME280;29213;50.770;7.298;2023-07-29T01:32:29;100038.09;;;17.19;75.11
43621;BME280;29213;50.770;7.298;2023-07-29T01:37:37;99940.56;;;16.54;75.20
43621;BME280;29213;50.770;7.298;2023-07-29T01:40:04;99976.03;;;16.69;75.39
43621;BME280;29213;50.770;7.298;2023-07-29T01:42:30;100018.63;;;16.98;75.48
43621;BME280;29213;50.770;7.298;2023-07-29T01:44:56;99971.03;;;16.73;75.22
43621;BME280;29213;50.770;7.298;2023-07-29T01:47:22;100018.56;;;17.05;75.60
43621;BME280;29213;50.770;7.298;2023-07-29T01:49:48;100034.22;;;17.15;75.48
43621;BME280;29213;50.770;7.298;2023-07-29T01:52:13;99966.69;;;16.72;75.63
43621;BME280;29213;50.770;7.298;2023-07-29T01:54:38;100027.78;;;17.16;75.70
43621;BME280;29213;50.770;7.298;2023-07-29T01:57:04;99971.22;;;16.72;75.63
43621;BME280;29213;50.770;7.298;2023-07-29T01:59:29;100007.03;;;16.98;75.82
43621;BME280;29213;50.770;7.298;2023-07-29T02:01:55;100023.66;;;17.13;75.66
43621;BME280;29213;50.770;7.298;2023-07-29T02:04:20;100012.75;;;17.08;75.88
43621;BME280;29213;50.770;7.298;2023-07-29T02:06:45;99963.78;;;16.74;75.95
43621;BME280;29213;50.770;7.298;2023-07-29T02:09:11;99945.84;;;16.67;76.06
43621;BME280;29213;50.770;7.298;2023-07-29T02:11:36;99973.66;;;16.80;78.10
43621;BME280;29213;50.770;7.298;2023-07-29T02:14:01;99996.50;;;16.96;77.75
43621;BME280;29213;50.770;7.298;2023-07-29T02:16:27;99947.88;;;16.72;77.57
43621;BME280;29213;50.770;7.298;2023-07-29T02:18:52;99995.56;;;17.09;77.45
43621;BME280;29213;50.770;7.298;2023-07-29T02:21:18;99958.56;;;16.79;77.33
43621;BME280;29213;50.770;7.298;2023-07-29T02:23:43;99892.72;;;16.44;77.33
43621;BME280;29213;50.770;7.298;2023-07-29T02:26:08;99937.28;;;16.77;77.25
43621;BME280;29213;50.770;7.298;2023-07-29T02:28:34;99985.84;;;17.08;77.27
43621;BME280;29213;50.770;7.298;2023-07-29T02:31:23;99986.16;;;17.18;77.43
43621;BME280;29213;50.770;7.298;2023-07-29T02:33:49;99952.19;;;16.99;77.05
43621;BME280;29213;50.770;7.298;2023-07-29T02:36:15;99972.75;;;17.12;77.08
43621;BME280;29213;50.770;7.298;2023-07-29T02:38:41;99909.81;;;16.75;77.10
43621;BME280;29213;50.770;7.298;2023-07-29T02:41:07;99950.34;;;16.99;77.18
43621;BME280;29213;50.770;7.298;2023-07-29T02:43:35;99943.75;;;16.95;77.03
43621;BME280;29213;50.770;7.298;2023-07-29T02:46:00;99971.81;;;17.06;77.02
43621;BME280;29213;50.770;7.298;2023-07-29T02:48:26;99968.66;;;17.09;77.16
43621;BME280;29213;50.770;7.298;2023-07-29T02:50:51;99944.59;;;16.95;76.84
43621;BME280;29213;50.770;7.298;2023-07-29T02:53:17;99900.97;;;16.68;76.80
43621;BME280;29213;50.770;7.298;2023-07-29T02:55:42;99979.78;;;17.13;76.79
43621;BME280;29213;50.770;7.298;2023-07-29T02:58:08;99958.63;;;16.98;76.78
43621;BME280;29213;50.770;7.298;2023-07-29T03:00:33;99996.25;;;17.23;76.88
43621;BME280;29213;50.770;7.298;2023-07-29T03:02:59;99908.53;;;16.78;76.64
43621;BME280;29213;50.770;7.298;2023-07-29T03:05:27;99952.66;;;16.95;76.59
43621;BME280;29213;50.770;7.298;2023-07-29T03:07:52;99955.25;;;17.02;76.46
43621;BME280;29213;50.770;7.298;2023-07-29T03:10:18;99896.94;;;16.59;76.54
43621;BME280;29213;50.770;7.298;2023-07-29T03:12:43;99882.53;;;16.46;76.76
43621;BME280;29213;50.770;7.298;2023-07-29T03:15:08;99956.84;;;16.85;77.47
43621;BME280;29213;50.770;7.298;2023-07-29T03:17:34;99965.28;;;16.95;77.51
43621;BME280;29213;50.770;7.298;2023-07-29T03:19:59;99992.19;;;17.14;77.35
43621;BME280;29213;50.770;7.298;2023-07-29T03:22:25;99928.38;;;16.77;77.30
43621;BME280;29213;50.770;7.298;2023-07-29T03:24:50;99957.88;;;16.90;77.22
43621;BME280;29213;50.770;7.298;2023-07-29T03:27:16;99975.31;;;17.06;77.19
43621;BME280;29213;50.770;7.298;2023-07-29T03:29:41;99948.75;;;16.91;77.21
43621;BME280;29213;50.770;7.298;2023-07-29T03:32:07;99984.19;;;17.07;77.48
43621;BME280;29213;50.770;7.298;2023-07-29T03:34:33;99995.94;;;17.13;77.27
43621;BME280;29213;50.770;7.298;2023-07-29T03:37:00;99996.38;;;17.09;77.49
43621;BME280;29213;50.770;7.298;2023-07-29T03:39:26;100013.50;;;17.15;77.31
43621;BME280;29213;50.770;7.298;2023-07-29T03:41:51;100013.59;;;17.08;77.06
43621;BME280;29213;50.770;7.298;2023-07-29T03:44:17;99986.84;;;16.88;77.31
43621;BME280;29213;50.770;7.298;2023-07-29T03:46:44;100008.47;;;17.00;77.34
43621;BME280;29213;50.770;7.298;2023-07-29T03:49:09;99876.59;;;16.19;77.34
43621;BME280;29213;50.770;7.298;2023-07-29T03:51:35;100024.78;;;17.05;77.15
43621;BME280;29213;50.770;7.298;2023-07-29T03:54:00;100012.00;;;17.01;77.63
43621;BME280;29213;50.770;7.298;2023-07-29T03:56:25;100018.13;;;17.08;77.55
43621;BME280;29213;50.770;7.298;2023-07-29T03:58:52;99900.38;;;16.40;78.24
43621;BME280;29213;50.770;7.298;2023-07-29T04:01:18;99988.69;;;16.94;78.27
43621;BME280;29213;50.770;7.298;2023-07-29T04:03:45;99954.25;;;16.78;77.93
43621;BME280;29213;50.770;7.298;2023-07-29T04:06:11;99985.16;;;16.94;77.76
43621;BME280;29213;50.770;7.298;2023-07-29T04:08:36;100028.59;;;17.16;77.78
43621;BME280;29213;50.770;7.298;2023-07-29T04:11:02;100006.38;;;17.02;77.85
43621;BME280;29213;50.770;7.298;2023-07-29T04:13:27;99995.91;;;16.94;77.73
43621;BME280;29213;50.770;7.298;2023-07-29T04:15:53;99960.47;;;16.72;77.64
43621;BME280;29213;50.770;7.298;2023-07-29T04:18:18;99982.09;;;16.90;77.74
43621;BME280;29213;50.770;7.298;2023-07-29T04:20:44;99978.63;;;16.83;77.38
43621;BME280;29213;50.770;7.298;2023-07-29T04:23:09;100019.09;;;17.14;77.48
43621;BME280;29213;50.770;7.298;2023-07-29T04:25:34;99836.84;;;16.02;76.93
43621;BME280;29213;50.770;7.298;2023-07-29T04:28:00;100018.28;;;17.13;77.04
43621;BME280;29213;50.770;7.298;2023-07-29T04:30:26;100013.59;;;17.08;76.96
43621;BME280;29213;50.770;7.298;2023-07-29T04:32:51;100001.97;;;17.08;76.87
43621;BME280;29213;50.770;7.298;2023-07-29T04:35:16;99974.38;;;16.94;76.67
43621;BME280;29213;50.770;7.298;2023-07-29T04:37:42;100005.94;;;17.05;76.62
43621;BME280;29213;50.770;7.298;2023-07-29T04:40:07;100026.16;;;17.15;76.57
43621;BME280;29213;50.770;7.298;2023-07-29T04:42:33;99954.47;;;16.76;76.51
43621;BME280;29213;50.770;7.298;2023-07-29T04:44:58;100004.88;;;17.06;76.77
43621;BME280;29213;50.770;7.298;2023-07-29T04:47:24;100021.19;;;17.12;76.39
43621;BME280;29213;50.770;7.298;2023-07-29T04:49:49;99993.97;;;17.01;76.56
43621;BME280;29213;50.770;7.298;2023-07-29T04:52:14;100027.25;;;17.26;76.45
43621;BME280;29213;50.770;7.298;2023-07-29T04:54:40;100020.31;;;17.18;76.76
43621;BME280;29213;50.770;7.298;2023-07-29T04:57:06;100007.75;;;17.12;76.73
43621;BME280;29213;50.770;7.298;2023-07-29T04:59:31;99913.78;;;16.47;76.56
43621;BME280;29213;50.770;7.298;2023-07-29T05:01:57;99987.84;;;16.94;76.43
43621;BME280;29213;50.770;7.298;2023-07-29T05:04:23;100001.22;;;17.01;76.55
43621;BME280;29213;50.770;7.298;2023-07-29T05:06:48;100010.72;;;17.03;76.36
43621;BME280;29213;50.770;7.298;2023-07-29T05:09:18;100033.97;;;17.16;76.30
43621;BME280;29213;50.770;7.298;2023-07-29T05:11:44;100031.91;;;17.18;76.13
43621;BME280;29213;50.770;7.298;2023-07-29T05:14:13;100056.44;;;17.29;76.28
43621;BME280;29213;50.770;7.298;2023-07-29T05:16:38;99948.63;;;16.54;76.18
43621;BME280;29213;50.770;7.298;2023-07-29T05:19:04;100014.84;;;17.06;76.31
43621;BME280;29213;50.770;7.298;2023-07-29T05:21:29;100031.28;;;17.16;76.41
43621;BME280;29213;50.770;7.298;2023-07-29T05:23:55;100029.72;;;17.08;76.18
43621;BME280;29213;50.770;7.298;2023-07-29T05:26:20;100050.69;;;17.25;76.15
43621;BME280;29213;50.770;7.298;2023-07-29T05:28:46;100044.19;;;17.07;76.19
43621;BME280;29213;50.770;7.298;2023-07-29T05:31:11;100046.25;;;17.12;76.17
43621;BME280;29213;50.770;7.298;2023-07-29T05:33:36;100031.56;;;17.08;76.41
43621;BME280;29213;50.770;7.298;2023-07-29T05:36:02;100026.88;;;17.03;76.17
43621;BME280;29213;50.770;7.298;2023-07-29T05:38:27;100053.22;;;17.20;76.53
43621;BME280;29213;50.770;7.298;2023-07-29T05:40:53;100010.28;;;17.06;76.43
43621;BME280;29213;50.770;7.298;2023-07-29T05:43:18;99909.28;;;16.41;76.53
43621;BME280;29213;50.770;7.298;2023-07-29T05:45:43;100017.69;;;17.11;76.36
43621;BME280;29213;50.770;7.298;2023-07-29T05:48:09;100063.47;;;17.30;76.18
43621;BME280;29213;50.770;7.298;2023-07-29T05:50:34;100027.50;;;16.99;76.44
43621;BME280;29213;50.770;7.298;2023-07-29T05:53:00;99906.69;;;16.27;76.38
43621;BME280;29213;50.770;7.298;2023-07-29T05:55:25;100062.19;;;17.32;76.62
43621;BME280;29213;50.770;7.298;2023-07-29T05:57:50;99982.56;;;16.80;76.32
43621;BME280;29213;50.770;7.298;2023-07-29T06:00:16;100055.53;;;17.35;75.91
43621;BME280;29213;50.770;7.298;2023-07-29T06:02:41;100004.31;;;17.04;76.23
43621;BME280;29213;50.770;7.298;2023-07-29T06:05:07;100031.44;;;17.21;76.54
43621;BME280;29213;50.770;7.298;2023-07-29T06:07:32;100024.47;;;17.14;76.13
43621;BME280;29213;50.770;7.298;2023-07-29T06:09:59;100075.88;;;17.49;75.92
43621;BME280;29213;50.770;7.298;2023-07-29T06:12:25;100028.84;;;17.15;75.98
43621;BME280;29213;50.770;7.298;2023-07-29T06:14:50;100053.13;;;17.27;75.96
43621;BME280;29213;50.770;7.298;2023-07-29T06:17:16;100041.97;;;17.23;75.98
43621;BME280;29213;50.770;7.298;2023-07-29T06:19:41;99864.47;;;16.09;75.57
43621;BME280;29213;50.770;7.298;2023-07-29T06:22:06;100067.94;;;17.36;75.82
43621;BME280;29213;50.770;7.298;2023-07-29T06:24:32;100104.31;;;17.64;75.62
43621;BME280;29213;50.770;7.298;2023-07-29T06:26:58;100067.44;;;17.46;74.91
43621;BME280;29213;50.770;7.298;2023-07-29T06:29:23;100072.38;;;17.49;74.37
43621;BME280;29213;50.770;7.298;2023-07-29T06:31:49;100115.59;;;17.80;74.25
43621;BME280;29213;50.770;7.298;2023-07-29T06:34:17;100106.03;;;17.84;74.17
43621;BME280;29213;50.770;7.298;2023-07-29T06:36:42;100112.44;;;17.83;74.51
43621;BME280;29213;50.770;7.298;2023-07-29T06:39:08;100105.88;;;17.79;74.59
43621;BME280;29213;50.770;7.298;2023-07-29T06:41:33;100093.34;;;17.66;74.84
43621;BME280;29213;50.770;7.298;2023-07-29T06:43:58;100063.09;;;17.45;75.35
43621;BME280;29213;50.770;7.298;2023-07-29T06:46:24;100134.13;;;17.88;75.10
43621;BME280;29213;50.770;7.298;2023-07-29T06:48:49;100119.50;;;17.84;74.53
43621;BME280;29213;50.770;7.298;2023-07-29T06:51:15;100091.44;;;17.66;74.35
43621;BME280;29213;50.770;7.298;2023-07-29T06:53:40;100106.75;;;17.72;73.60
43621;BME280;29213;50.770;7.298;2023-07-29T06:56:06;100123.44;;;17.81;73.57
43621;BME280;29213;50.770;7.298;2023-07-29T06:58:31;100056.88;;;17.44;73.59
43621;BME280;29213;50.770;7.298;2023-07-29T07:00:56;100125.91;;;17.83;73.73
43621;BME280;29213;50.770;7.298;2023-07-29T07:03:23;100114.47;;;17.87;73.34
43621;BME280;29213;50.770;7.298;2023-07-29T07:05:48;100068.56;;;17.57;72.90
43621;BME280;29213;50.770;7.298;2023-07-29T07:08:14;100102.41;;;17.71;72.53
43621;BME280;29213;50.770;7.298;2023-07-29T07:10:39;100085.53;;;17.57;72.06
43621;BME280;29213;50.770;7.298;2023-07-29T07:13:04;100098.94;;;17.64;72.07
43621;BME280;29213;50.770;7.298;2023-07-29T07:15:30;100112.38;;;17.71;71.83
43621;BME280;29213;50.770;7.298;2023-07-29T07:17:55;99982.47;;;16.94;71.79
43621;BME280;29213;50.770;7.298;2023-07-29T07:20:21;100127.84;;;17.94;71.93
43621;BME280;29213;50.770;7.298;2023-07-29T07:22:46;100104.00;;;17.98;71.72
43621;BME280;29213;50.770;7.298;2023-07-29T07:25:12;100098.16;;;18.01;71.69
43621;BME280;29213;50.770;7.298;2023-07-29T07:27:37;100119.53;;;18.14;71.94
43621;BME280;29213;50.770;7.298;2023-07-29T07:30:03;100139.50;;;18.25;71.68
43621;BME280;29213;50.770;7.298;2023-07-29T07:32:28;100133.63;;;18.16;71.03
43621;BME280;29213;50.770;7.298;2023-07-29T07:34:54;100059.75;;;17.68;71.28
43621;BME280;29213;50.770;7.298;2023-07-29T07:37:19;100151.34;;;18.24;72.09
43621;BME280;29213;50.770;7.298;2023-07-29T07:39:44;100117.47;;;17.98;71.94
43621;BME280;29213;50.770;7.298;2023-07-29T07:42:10;100133.53;;;18.05;71.15
43621;BME280;29213;50.770;7.298;2023-07-29T07:44:35;100116.69;;;17.91;70.79
43621;BME280;29213;50.770;7.298;2023-07-29T07:47:01;100079.22;;;17.70;69.80
43621;BME280;29213;50.770;7.298;2023-07-29T07:49:26;100115.00;;;17.96;69.94
43621;BME280;29213;50.770;7.298;2023-07-29T07:51:51;100137.13;;;18.17;68.89
43621;BME280;29213;50.770;7.298;2023-07-29T07:54:17;100114.09;;;18.02;69.57
43621;BME280;29213;50.770;7.298;2023-07-29T07:56:43;100124.91;;;18.14;69.38
43621;BME280;29213;50.770;7.298;2023-07-29T07:59:08;100080.41;;;17.93;68.95
43621;BME280;29213;50.770;7.298;2023-07-29T08:01:38;100147.94;;;18.48;68.40
43621;BME280;29213;50.770;7.298;2023-07-29T08:04:04;100110.59;;;18.33;67.73
43621;BME280;29213;50.770;7.298;2023-07-29T08:06:31;100158.88;;;18.72;67.54
43621;BME280;29213;50.770;7.298;2023-07-29T08:08:57;100102.72;;;18.50;66.67
43621;BME280;29213;50.770;7.298;2023-07-29T08:11:22;100093.66;;;18.63;65.20
43621;BME280;29213;50.770;7.298;2023-07-29T08:13:48;100107.38;;;18.73;65.98
43621;BME280;29213;50.770;7.298;2023-07-29T08:16:13;100109.03;;;18.74;64.88
43621;BME280;29213;50.770;7.298;2023-07-29T08:18:39;100042.84;;;18.29;63.08
43621;BME280;29213;50.770;7.298;2023-07-29T08:21:04;100130.63;;;18.74;64.33
43621;BME280;29213;50.770;7.298;2023-07-29T08:23:31;100108.16;;;18.62;64.65
43621;BME280;29213;50.770;7.298;2023-07-29T08:25:59;100156.47;;;18.94;63.53
43621;BME280;29213;50.770;7.298;2023-07-29T08:28:36;99917.97;;;17.43;62.81
43621;BME280;29213;50.770;7.298;2023-07-29T08:31:02;100110.41;;;18.65;63.70
43621;BME280;29213;50.770;7.298;2023-07-29T08:33:27;100046.81;;;18.26;62.72
43621;BME280;29213;50.770;7.298;2023-07-29T08:35:53;100152.13;;;18.93;61.66
43621;BME280;29213;50.770;7.298;2023-07-29T08:38:19;100018.75;;;18.03;61.99
43621;BME280;29213;50.770;7.298;2023-07-29T08:41:00;100107.56;;;18.60;62.51
43621;BME280;29213;50.770;7.298;2023-07-29T08:43:31;100113.16;;;18.77;62.60
43621;BME280;29213;50.770;7.298;2023-07-29T08:45:57;100153.94;;;19.11;62.34
43621;BME280;29213;50.770;7.298;2023-07-29T08:48:32;100166.50;;;19.17;63.38
43621;BME280;29213;50.770;7.298;2023-07-29T08:50:59;100136.06;;;18.98;62.39
43621;BME280;29213;50.770;7.298;2023-07-29T08:53:26;100076.63;;;18.62;61.78
43621;BME280;29213;50.770;7.298;2023-07-29T08:55:53;100104.09;;;18.71;61.22
43621;BME280;29213;50.770;7.298;2023-07-29T08:58:21;100146.63;;;19.00;61.04
43621;BME280;29213;50.770;7.298;2023-07-29T09:00:48;100153.19;;;19.04;60.00
43621;BME280;29213;50.770;7.298;2023-07-29T09:03:13;100093.50;;;18.58;61.83
43621;BME280;29213;50.770;7.298;2023-07-29T09:05:39;100154.38;;;18.96;61.16
43621;BME280;29213;50.770;7.298;2023-07-29T09:08:04;100146.94;;;18.91;61.98
43621;BME280;29213;50.770;7.298;2023-07-29T09:10:35;100169.63;;;19.02;61.33
43621;BME280;29213;50.770;7.298;2023-07-29T09:13:00;100048.09;;;18.24;61.83
43621;BME280;29213;50.770;7.298;2023-07-29T09:15:29;100178.22;;;19.11;61.84
43621;BME280;29213;50.770;7.298;2023-07-29T09:17:56;100156.47;;;18.94;62.85
43621;BME280;29213;50.770;7.298;2023-07-29T09:20:26;100189.22;;;19.09;63.03
43621;BME280;29213;50.770;7.298;2023-07-29T09:22:54;100163.00;;;18.86;63.10
43621;BME280;29213;50.770;7.298;2023-07-29T09:25:27;100187.69;;;19.02;63.91
43621;BME280;29213;50.770;7.298;2023-07-29T09:27:58;100187.09;;;19.00;63.15
43621;BME280;29213;50.770;7.298;2023-07-29T09:30:25;100091.44;;;18.41;63.69
43621;BME280;29213;50.770;7.298;2023-07-29T09:32:57;100194.59;;;18.98;64.17
43621;BME280;29213;50.770;7.298;2023-07-29T09:35:24;100184.28;;;18.94;64.74
43621;BME280;29213;50.770;7.298;2023-07-29T09:37:51;100050.94;;;17.98;65.06
43621;BME280;29213;50.770;7.298;2023-07-29T09:40:18;100193.03;;;18.90;64.88
43621;BME280;29213;50.770;7.298;2023-07-29T09:42:48;100195.16;;;18.88;64.06
43621;BME280;29213;50.770;7.298;2023-07-29T09:45:22;100167.88;;;18.65;65.03
43621;BME280;29213;50.770;7.298;2023-07-29T09:47:48;100148.72;;;18.55;65.25
43621;BME280;29213;50.770;7.298;2023-07-29T09:50:14;100153.31;;;18.48;64.86
43621;BME280;29213;50.770;7.298;2023-07-29T09:52:39;100061.19;;;17.89;64.68
43621;BME280;29213;50.770;7.298;2023-07-29T09:55:05;100153.56;;;18.46;64.87
43621;BME280;29213;50.770;7.298;2023-07-29T09:57:32;100113.84;;;18.23;65.11
43621;BME280;29213;50.770;7.298;2023-07-29T09:59:57;100184.91;;;18.78;64.71
43621;BME280;29213;50.770;7.298;2023-07-29T10:02:23;100156.25;;;18.65;63.94
43621;BME280;29213;50.770;7.298;2023-07-29T10:04:51;100157.22;;;18.71;63.83
43621;BME280;29213;50.770;7.298;2023-07-29T10:07:18;100080.66;;;18.22;63.82
43621;BME280;29213;50.770;7.298;2023-07-29T10:09:45;100165.69;;;18.74;63.50
43621;BME280;29213;50.770;7.298;2023-07-29T10:12:11;100145.53;;;18.58;63.87
43621;BME280;29213;50.770;7.298;2023-07-29T10:14:40;100161.41;;;18.66;63.86
43621;BME280;29213;50.770;7.298;2023-07-29T10:17:05;100139.78;;;18.54;63.56
43621;BME280;29213;50.770;7.298;2023-07-29T10:19:31;100161.78;;;18.70;64.16
43621;BME280;29213;50.770;7.298;2023-07-29T10:21:59;100105.75;;;18.23;64.54
43621;BME280;29213;50.770;7.298;2023-07-29T10:24:32;100123.78;;;18.41;64.91
43621;BME280;29213;50.770;7.298;2023-07-29T10:27:00;100113.16;;;18.27;64.98
43621;BME280;29213;50.770;7.298;2023-07-29T10:29:31;100198.56;;;18.95;65.08
43621;BME280;29213;50.770;7.298;2023-07-29T10:32:01;100046.22;;;17.94;65.25
43621;BME280;29213;50.770;7.298;2023-07-29T10:34:28;100155.66;;;18.63;65.34
43621;BME280;29213;50.770;7.298;2023-07-29T10:36:54;100200.31;;;18.89;65.09
43621;BME280;29213;50.770;7.298;2023-07-29T10:39:20;100220.06;;;19.02;65.09
43621;BME280;29213;50.770;7.298;2023-07-29T10:42:02;100144.97;;;18.56;64.78
43621;BME280;29213;50.770;7.298;2023-07-29T10:47:25;100004.25;;;17.67;64.73
43621;BME280;29213;50.770;7.298;2023-07-29T10:49:53;100192.66;;;18.86;64.48
43621;BME280;29213;50.770;7.298;2023-07-29T10:55:01;100218.06;;;18.97;64.98
43621;BME280;29213;50.770;7.298;2023-07-29T10:59:57;100183.00;;;18.66;64.30
43621;BME280;29213;50.770;7.298;2023-07-29T11:02:38;100208.06;;;18.86;64.26
43621;BME280;29213;50.770;7.298;2023-07-29T11:05:09;100188.97;;;18.68;64.20
43621;BME280;29213;50.770;7.298;2023-07-29T11:07:48;100190.25;;;18.66;64.22
43621;BME280;29213;50.770;7.298;2023-07-29T11:10:14;100053.31;;;17.88;64.62
43621;BME280;29213;50.770;7.298;2023-07-29T11:12:45;100221.28;;;18.87;65.12
43621;BME280;29213;50.770;7.298;2023-07-29T11:15:25;100228.59;;;18.87;65.13
43621;BME280;29213;50.770;7.298;2023-07-29T11:18:01;100223.19;;;18.87;64.85
43621;BME280;29213;50.770;7.298;2023-07-29T11:20:28;100208.84;;;18.86;65.46
43621;BME280;29213;50.770;7.298;2023-07-29T11:22:55;100075.63;;;17.95;65.84
43621;BME280;29213;50.770;7.298;2023-07-29T11:25:23;100202.25;;;18.70;66.23
43621;BME280;29213;50.770;7.298;2023-07-29T11:27:50;100185.47;;;18.68;65.93
43621;BME280;29213;50.770;7.298;2023-07-29T11:30:16;100192.03;;;18.72;66.12
43621;BME280;29213;50.770;7.298;2023-07-29T11:32:43;100225.16;;;18.79;65.87
43621;BME280;29213;50.770;7.298;2023-07-29T11:35:14;100144.50;;;18.40;65.78
43621;BME280;29213;50.770;7.298;2023-07-29T11:37:41;100153.72;;;18.51;65.63
43621;BME280;29213;50.770;7.298;2023-07-29T11:40:07;100176.19;;;18.64;66.05
43621;BME280;29213;50.770;7.298;2023-07-29T11:42:36;100205.34;;;18.86;66.70
43621;BME280;29213;50.770;7.298;2023-07-29T11:45:02;100218.50;;;18.94;66.91
43621;BME280;29213;50.770;7.298;2023-07-29T11:47:29;100213.72;;;18.96;66.96
43621;BME280;29213;50.770;7.298;2023-07-29T11:49:58;100191.13;;;18.78;67.38
43621;BME280;29213;50.770;7.298;2023-07-29T11:52:23;100207.28;;;18.97;67.80
43621;BME280;29213;50.770;7.298;2023-07-29T11:54:49;100166.34;;;18.69;67.81
43621;BME280;29213;50.770;7.298;2023-07-29T11:57:16;100164.47;;;18.70;68.32
43621;BME280;29213;50.770;7.298;2023-07-29T11:59:42;100166.84;;;18.78;68.30
43621;BME280;29213;50.770;7.298;2023-07-29T12:02:15;100141.69;;;18.54;68.20
43621;BME280;29213;50.770;7.298;2023-07-29T12:04:42;100186.59;;;18.91;67.95
43621;BME280;29213;50.770;7.298;2023-07-29T12:07:08;100162.06;;;18.80;67.95
43621;BME280;29213;50.770;7.298;2023-07-29T12:09:35;100059.06;;;18.10;67.10
43621;BME280;29213;50.770;7.298;2023-07-29T12:12:02;100162.22;;;18.98;67.74
43621;BME280;29213;50.770;7.298;2023-07-29T12:14:28;100088.41;;;18.49;67.95
43621;BME280;29213;50.770;7.298;2023-07-29T12:16:54;100016.09;;;18.15;67.98
43621;BME280;29213;50.770;7.298;2023-07-29T12:19:20;100143.44;;;19.03;68.00
43621;BME280;29213;50.770;7.298;2023-07-29T12:21:47;99904.59;;;17.55;68.22
43621;BME280;29213;50.770;7.298;2023-07-29T12:24:14;99948.28;;;17.88;68.22
43621;BME280;29213;50.770;7.298;2023-07-29T12:26:42;100100.28;;;18.91;68.20
43621;BME280;29213;50.770;7.298;2023-07-29T12:29:18;100122.34;;;19.12;67.61
43621;BME280;29213;50.770;7.298;2023-07-29T12:31:47;100103.59;;;19.05;67.89
43621;BME280;29213;50.770;7.298;2023-07-29T12:34:20;100131.19;;;19.19;68.17
43621;BME280;29213;50.770;7.298;2023-07-29T12:36:47;100163.38;;;19.44;67.08
43621;BME280;29213;50.770;7.298;2023-07-29T12:39:32;100161.50;;;19.45;64.90
43621;BME280;29213;50.770;7.298;2023-07-29T12:41:59;100161.50;;;19.45;64.60
43621;BME280;29213;50.770;7.298;2023-07-29T12:44:35;100110.63;;;19.18;64.00
43621;BME280;29213;50.770;7.298;2023-07-29T12:47:01;100150.00;;;19.49;64.12
43621;BME280;29213;50.770;7.298;2023-07-29T12:49:28;100110.84;;;19.28;62.63
43621;BME280;29213;50.770;7.298;2023-07-29T12:51:55;100118.31;;;19.33;62.78
43621;BME280;29213;50.770;7.298;2023-07-29T12:54:21;100138.59;;;19.47;62.50
43621;BME280;29213;50.770;7.298;2023-07-29T12:56:47;100144.59;;;19.49;62.87
43621;BME280;29213;50.770;7.298;2023-07-29T12:59:12;100121.47;;;19.42;62.79
43621;BME280;29213;50.770;7.298;2023-07-29T13:01:37;99966.00;;;18.50;62.44